.
WxDataArchive / Data Records for 2006-06-03
2006-06-02 June 2006 2006-06-04

Data Records for Saturday, 03 June 2006

Time	Temp	Chill	HIndex	Humid	Dewpt	 Wind 	HiWind	WindDir	Rain 	Barom 
-----	----	-----	------	-----	-----	------	------	-------	-----	----- 
00:00	57.5	57.5	57.5	95	56.1	0	1	22	0.00	29.914 
00:05	57.3	57.3	57.3	95	55.9	0	0	---	0.00	29.914 
00:10	57.3	57.3	57.3	95	55.9	0	0	---	0.00	29.914 
00:15	57.2	57.2	57.2	95	55.8	0	0	---	0.00	29.917 
00:20	57.0	57.0	57.0	95	55.6	0	1	22	0.00	29.917 
00:25	57.0	57.0	57.0	95	55.6	0	1	22	0.00	29.917 
00:30	57.0	57.0	57.0	95	55.6	0	0	---	0.00	29.920 
00:35	56.9	56.9	56.9	95	55.5	0	0	---	0.00	29.920 
00:40	56.9	56.9	56.9	95	55.5	0	0	---	0.00	29.920 
00:45	57.0	57.0	57.0	95	55.6	0	1	22	0.00	29.917 
00:50	56.9	56.9	56.9	95	55.5	0	1	22	0.00	29.917 
00:55	56.9	56.9	56.9	95	55.5	0	0	---	0.00	29.917 
01:00	56.7	56.7	56.7	95	55.3	0	0	---	0.00	29.910 
01:05	56.7	56.7	56.7	95	55.3	0	1	22	0.00	29.910 
01:10	56.9	56.9	56.9	95	55.5	0	2	22	0.00	29.910 
01:15	57.0	57.0	57.0	95	55.6	0	2	338	0.00	29.907 
01:20	57.0	57.0	57.0	95	55.6	0	0	---	0.00	29.907 
01:25	56.9	56.9	56.9	95	55.5	0	0	---	0.00	29.907 
01:30	56.7	56.7	56.7	95	55.3	0	0	---	0.00	29.907 
01:35	56.6	56.6	56.6	95	55.2	0	0	---	0.00	29.907 
01:40	56.5	56.5	56.5	95	55.1	0	0	---	0.00	29.907 
01:45	56.3	56.3	56.3	95	54.9	0	0	---	0.00	29.910 
01:50	56.2	56.2	56.2	95	54.8	0	0	---	0.00	29.910 
01:55	55.9	55.9	55.9	95	54.5	0	0	---	0.00	29.910 
02:00	55.7	55.7	55.7	95	54.3	0	0	---	0.00	29.908 
02:05	55.6	55.6	55.6	95	54.2	0	0	---	0.00	29.908 
02:10	55.4	55.4	55.4	95	54.0	0	0	---	0.00	29.908 
02:15	55.4	55.4	55.4	95	54.0	0	0	---	0.00	29.900 
02:20	55.3	55.3	55.3	95	53.9	0	1	338	0.00	29.900 
02:25	55.3	55.3	55.3	95	53.9	0	0	---	0.00	29.900 
02:30	55.1	55.1	55.1	95	53.7	0	0	---	0.00	29.899 
02:35	55.0	55.0	55.0	95	53.6	0	0	---	0.00	29.899 
02:40	54.8	54.8	54.8	95	53.4	0	0	---	0.00	29.899 
02:45	54.7	54.7	54.7	95	53.3	0	1	338	0.00	29.894 
02:50	54.5	54.5	54.5	95	53.1	0	1	338	0.00	29.894 
02:55	54.5	54.5	54.5	95	53.1	0	1	338	0.00	29.894 
03:00	54.5	54.5	54.5	95	53.1	0	0	---	0.00	29.889 
03:05	54.7	54.7	54.7	95	53.3	0	0	---	0.00	29.889 
03:10	55.0	55.0	55.0	95	53.6	0	0	---	0.00	29.889 
03:15	55.1	55.1	55.1	96	54.0	0	0	---	0.00	29.888 
03:20	55.1	55.1	55.1	96	54.0	0	0	---	0.00	29.888 
03:25	55.1	55.1	55.1	96	54.0	0	0	---	0.00	29.888 
03:30	55.1	55.1	55.1	96	54.0	0	0	---	0.00	29.886 
03:35	55.0	55.0	55.0	96	53.9	0	0	---	0.00	29.886 
03:40	54.8	54.8	54.8	96	53.7	0	0	---	0.00	29.886 
03:45	54.5	54.5	54.5	96	53.4	0	0	---	0.00	29.886 
03:50	54.4	54.4	54.4	95	53.0	0	0	---	0.00	29.886 
03:55	54.2	54.2	54.2	96	53.1	0	0	---	0.00	29.886 
04:00	54.1	54.1	54.1	95	52.7	0	0	---	0.00	29.884 
04:05	53.9	53.9	53.9	95	52.5	0	0	---	0.00	29.884 
04:10	53.8	53.8	53.8	95	52.4	0	0	---	0.00	29.884 
04:15	53.6	53.6	53.6	95	52.2	0	0	---	0.00	29.887 
04:20	53.5	53.5	53.5	96	52.4	0	0	---	0.00	29.887 
04:25	53.5	53.5	53.5	96	52.4	0	0	---	0.00	29.887 
04:30	53.3	53.3	53.3	96	52.2	0	0	---	0.00	29.882 
04:35	53.2	53.2	53.2	95	51.8	0	0	---	0.00	29.882 
04:40	53.1	53.1	53.1	95	51.7	0	0	---	0.00	29.882 
04:45	52.9	52.9	52.9	95	51.5	0	0	---	0.00	29.885 
04:50	52.9	52.9	52.9	95	51.5	0	0	---	0.00	29.885 
04:55	52.8	52.8	52.8	95	51.4	0	0	---	0.00	29.885 
05:00	52.9	52.9	52.9	96	51.8	0	0	---	0.00	29.887 
05:05	53.2	53.2	53.2	96	52.1	0	0	---	0.00	29.887 
05:10	53.5	53.5	53.5	96	52.4	0	0	---	0.00	29.887 
05:15	53.5	53.5	53.5	96	52.4	0	0	---	0.00	29.891 
05:20	53.6	53.6	53.6	96	52.5	0	0	---	0.00	29.891 
05:25	53.6	53.6	53.6	96	52.5	0	1	338	0.00	29.891 
05:30	53.9	53.9	53.9	96	52.8	0	0	---	0.00	29.891 
05:35	54.1	54.1	54.1	96	53.0	0	0	---	0.00	29.891 
05:40	53.8	53.8	53.8	96	52.7	0	0	---	0.00	29.891 
05:45	53.6	53.6	53.6	96	52.5	0	0	---	0.00	29.892 
05:50	53.5	53.5	53.5	96	52.4	0	0	---	0.00	29.892 
05:55	53.3	53.3	53.3	96	52.2	0	0	---	0.00	29.892 
06:00	53.2	53.2	53.2	96	52.1	0	0	---	0.00	29.894 
06:05	53.1	53.1	53.1	96	52.0	0	0	---	0.00	29.894 
06:10	52.9	52.9	52.9	96	51.8	0	0	---	0.00	29.894 
06:15	52.9	52.9	52.9	96	51.8	0	0	---	0.00	29.904 
06:20	52.8	52.8	52.8	96	51.7	0	0	---	0.00	29.904 
06:25	53.1	53.1	53.1	96	52.0	0	2	338	0.00	29.904 
06:30	53.2	53.2	53.2	96	52.1	0	0	---	0.00	29.909 
06:35	53.5	53.5	53.5	96	52.4	0	2	338	0.00	29.909 
06:40	53.6	53.6	53.6	96	52.5	0	1	338	0.00	29.909 
06:45	53.8	53.8	53.8	96	52.7	0	1	338	0.00	29.917 
06:50	53.9	53.9	53.9	96	52.8	0	1	338	0.00	29.917 
06:55	54.1	54.1	54.1	96	53.0	0	0	---	0.00	29.917 
07:00	54.2	54.2	54.2	96	53.1	0	0	---	0.00	29.921 
07:05	54.5	54.5	54.5	96	53.4	0	1	338	0.00	29.921 
07:10	55.0	55.0	55.0	96	53.9	0	0	---	0.00	29.921 
07:15	55.3	55.3	55.3	96	54.2	0	0	---	0.00	29.934 
07:20	55.7	55.7	55.7	96	54.6	0	0	---	0.00	29.934 
07:25	56.0	56.0	56.0	96	54.9	0	0	---	0.00	29.934 
07:30	56.5	56.5	56.5	96	55.4	0	0	---	0.00	29.932 
07:35	56.7	56.7	56.7	96	55.6	0	0	---	0.00	29.932 
07:40	57.0	57.0	57.0	96	55.9	0	0	---	0.00	29.932 
07:45	57.5	57.5	57.5	96	56.4	0	1	338	0.00	29.931 
07:50	57.8	57.8	57.8	96	56.7	0	0	---	0.00	29.931 
07:55	58.3	58.3	58.3	96	57.2	0	0	---	0.00	29.931 
08:00	58.7	58.7	58.7	96	57.6	0	1	338	0.00	29.932 
08:05	58.9	58.9	58.9	96	57.8	0	1	338	0.00	29.932 
08:10	59.2	59.2	59.2	96	58.1	0	1	338	0.00	29.932 
08:15	59.3	59.3	59.3	96	58.2	0	0	---	0.00	29.932 
08:20	59.6	59.6	59.6	96	58.5	0	1	338	0.00	29.932 
08:25	59.9	59.9	59.9	96	58.8	0	1	338	0.00	29.932 
08:30	60.5	60.5	60.5	95	59.1	0	1	338	0.00	29.933 
08:35	61.0	61.0	61.0	93	59.0	0	1	338	0.00	29.933 
08:40	61.3	61.3	61.3	89	58.0	0	1	338	0.00	29.933 
08:45	61.8	61.8	61.8	88	58.2	0	1	338	0.00	29.937 
08:50	62.3	62.3	62.3	86	58.1	0	2	338	0.00	29.937 
08:55	62.7	62.7	62.7	85	58.1	0	1	338	0.00	29.937 
09:00	63.1	63.1	63.1	84	58.2	0	1	338	0.00	29.936 
09:05	63.5	63.5	63.5	83	58.2	0	2	338	0.00	29.936 
09:10	63.9	63.9	63.9	78	56.9	0	2	338	0.00	29.936 
09:15	64.5	64.5	64.5	78	57.5	0	1	338	0.00	29.943 
09:20	65.2	65.2	65.2	77	57.8	0	2	338	0.00	29.943 
09:25	65.6	65.6	65.6	77	58.2	0	2	338	0.00	29.943 
09:30	66.1	66.1	66.1	78	59.0	0	1	338	0.00	29.943 
09:35	66.0	66.0	66.0	73	57.1	0	1	338	0.00	29.943 
09:40	66.6	66.6	66.6	72	57.3	1	2	22	0.00	29.943 
09:45	66.9	66.9	66.9	74	58.3	1	3	22	0.00	29.943 
09:50	66.9	66.9	66.9	71	57.2	1	3	292	0.00	29.943 
09:55	67.6	67.6	67.6	71	57.9	0	2	0	0.00	29.943 
10:00	68.1	68.1	68.1	68	57.1	0	2	0	0.00	29.944 
10:05	68.1	68.1	68.1	73	59.1	1	2	0	0.00	29.944 
10:10	68.6	68.6	68.6	72	59.2	0	2	338	0.00	29.944 
10:15	68.8	68.8	68.8	70	58.6	0	2	22	0.00	29.941 
10:20	68.9	68.9	68.9	69	58.3	0	1	22	0.00	29.941 
10:25	69.6	69.6	69.6	70	59.4	0	2	22	0.00	29.941 
10:30	70.3	70.3	70.3	70	60.0	1	2	338	0.00	29.939 
10:35	70.1	70.1	70.1	67	58.6	1	4	338	0.00	29.939 
10:40	69.9	69.9	69.9	68	58.8	1	3	45	0.00	29.939 
10:45	69.8	69.8	69.8	68	58.7	0	2	45	0.00	29.939 
10:50	69.8	69.8	69.8	70	59.6	1	3	315	0.00	29.939 
10:55	70.4	70.4	70.4	71	60.5	0	2	292	0.00	29.939 
11:00	71.3	71.3	71.3	69	60.6	1	4	68	0.00	29.935 
11:05	71.6	71.6	71.6	66	59.6	1	3	112	0.00	29.935 
11:10	71.8	71.8	71.8	65	59.4	0	2	112	0.00	29.935 
11:15	71.8	71.8	71.8	67	60.2	1	3	292	0.00	29.934 
11:20	72.1	72.1	72.1	64	59.2	1	4	292	0.00	29.934 
11:25	71.8	71.8	71.8	64	59.0	1	2	292	0.00	29.934 
11:30	71.1	71.1	71.1	63	57.9	0	2	315	0.00	29.933 
11:35	70.6	70.6	70.6	67	59.1	0	2	315	0.00	29.933 
11:40	70.8	70.8	70.8	64	58.0	1	3	338	0.00	29.933 
11:45	71.5	71.5	71.5	66	59.5	1	2	315	0.00	29.934 
11:50	72.3	72.3	72.3	65	59.9	2	4	68	0.00	29.934 
11:55	73.2	73.2	73.2	64	60.3	1	4	22	0.00	29.934 
12:00	73.7	73.7	73.7	62	59.9	1	3	45	0.00	29.932 
12:05	73.7	73.7	73.7	58	58.0	1	3	270	0.00	29.932 
12:10	73.2	73.2	73.2	57	57.0	1	3	338	0.00	29.932 
12:15	72.8	72.8	72.8	62	59.0	1	3	225	0.00	29.927 
12:20	73.0	73.0	73.0	57	56.9	1	3	292	0.00	29.927 
12:25	73.0	73.0	73.0	63	59.6	1	3	338	0.00	29.927 
12:30	73.2	73.2	73.2	57	57.0	0	2	315	0.00	29.924 
12:35	73.9	73.9	73.9	60	59.1	1	3	315	0.00	29.924 
12:40	74.0	74.0	74.0	58	58.3	0	2	22	0.00	29.924 
12:45	74.2	74.2	74.2	60	59.4	1	3	22	0.00	29.922 
12:50	74.4	74.4	74.4	59	59.1	1	4	292	0.00	29.922 
12:55	74.7	74.7	74.7	52	55.9	1	5	68	0.00	29.922 
13:00	74.9	74.9	74.9	53	56.6	1	4	112	0.00	29.920 
13:05	75.1	75.1	77.5	58	59.3	1	7	68	0.00	29.920 
13:10	75.3	75.3	77.7	49	54.8	1	7	112	0.00	29.920 
13:15	74.6	74.6	74.6	50	54.7	1	4	338	0.00	29.914 
13:20	74.4	74.4	74.4	59	59.1	0	3	315	0.00	29.914 
13:25	74.4	74.4	74.4	56	57.7	1	3	292	0.00	29.914 
13:30	74.9	74.9	74.9	50	55.0	1	3	292	0.00	29.907 
13:35	75.4	75.4	77.8	51	56.0	1	4	68	0.00	29.907 
13:40	75.4	75.4	77.8	50	55.4	1	4	270	0.00	29.907 
13:45	75.3	75.3	77.7	49	54.8	2	5	292	0.00	29.899 
13:50	75.1	75.1	77.7	48	54.1	1	3	292	0.00	29.899 
13:55	75.1	75.1	77.7	50	55.2	2	5	270	0.00	29.899 
14:00	75.3	75.3	77.7	48	54.2	0	1	22	0.00	29.894 
14:05	75.1	75.1	77.7	46	52.9	2	4	292	0.00	29.894 
14:10	75.4	75.4	77.8	49	54.9	1	3	0	0.00	29.894 
14:15	75.6	75.6	77.9	49	55.1	1	6	270	0.00	29.890 
14:20	76.0	76.0	78.0	45	53.1	1	5	315	0.00	29.890 
14:25	76.1	76.1	78.0	45	53.2	2	4	270	0.00	29.890 
14:30	76.3	76.3	78.1	45	53.4	1	4	45	0.00	29.888 
14:35	75.4	75.4	77.7	44	52.0	1	4	68	0.00	29.888 
14:40	75.3	75.3	77.7	45	52.5	1	3	135	0.00	29.888 
14:45	75.1	75.1	77.7	46	52.9	0	2	292	0.00	29.880 
14:50	75.4	75.4	77.8	48	54.3	1	3	315	0.00	29.880 
14:55	76.1	76.1	78.0	46	53.8	1	5	270	0.00	29.880 
15:00	76.7	76.7	78.3	46	54.3	1	4	292	0.00	29.875 
15:05	76.5	76.5	78.1	43	52.3	2	6	315	0.00	29.875 
15:10	75.4	75.4	77.8	48	54.3	1	4	315	0.00	29.875 
15:15	75.3	75.3	77.7	51	55.9	0	2	292	0.00	29.878 
15:20	75.6	75.6	77.8	43	51.5	1	3	270	0.00	29.878 
15:25	75.1	75.1	77.6	45	52.3	1	4	292	0.00	29.878 
15:30	75.6	75.6	77.9	47	53.9	1	4	22	0.00	29.872 
15:35	76.3	76.3	78.0	42	51.5	1	4	0	0.00	29.872 
15:40	76.7	76.7	78.1	39	49.9	1	4	315	0.00	29.872 
15:45	77.0	77.0	78.4	45	54.0	1	3	0	0.00	29.867 
15:50	77.0	77.0	78.4	44	53.4	1	5	315	0.00	29.867 
15:55	77.0	77.0	78.2	40	50.8	1	5	270	0.00	29.867 
16:00	76.8	76.8	78.1	40	50.6	1	6	68	0.00	29.864 
16:05	77.2	77.2	78.4	41	51.7	2	4	270	0.00	29.864 
16:10	76.8	76.8	78.3	43	52.6	1	4	0	0.00	29.864 
16:15	76.8	76.8	78.2	42	51.9	1	5	22	0.00	29.863 
16:20	76.7	76.7	78.2	43	52.5	1	3	292	0.00	29.863 
16:25	77.0	77.0	78.4	43	52.8	1	3	315	0.00	29.863 
16:30	76.0	76.0	77.9	42	51.2	2	7	315	0.00	29.866 
16:35	74.7	74.7	74.7	45	51.9	0	2	0	0.00	29.866 
16:40	75.3	75.3	77.7	45	52.5	0	2	45	0.00	29.866 
16:45	76.0	76.0	77.9	43	51.9	1	3	292	0.00	29.861 
16:50	76.3	76.3	78.1	46	54.0	1	4	45	0.00	29.861 
16:55	76.7	76.7	78.3	44	53.1	1	4	0	0.00	29.861 
17:00	76.8	76.8	78.1	40	50.6	1	4	45	0.00	29.858 
17:05	76.8	76.8	78.1	39	49.9	1	4	292	0.00	29.858 
17:10	77.0	77.0	78.2	40	50.8	1	4	338	0.00	29.858 
17:15	77.2	77.2	78.3	40	51.0	2	5	270	0.00	29.859 
17:20	77.2	77.2	78.3	39	50.3	1	5	292	0.00	29.859 
17:25	77.4	77.4	78.5	42	52.5	1	3	292	0.00	29.859 
17:30	77.4	77.4	78.3	37	49.1	1	4	270	0.00	29.858 
17:35	77.2	77.2	78.3	39	50.3	1	3	315	0.00	29.858 
17:40	76.5	76.5	78.0	40	50.4	1	5	292	0.00	29.858 
17:45	76.5	76.5	78.0	40	50.4	1	3	292	0.00	29.854 
17:50	76.7	76.7	78.0	38	49.2	1	2	45	0.00	29.854 
17:55	76.5	76.5	78.0	40	50.4	1	3	270	0.00	29.854 
18:00	76.5	76.5	77.9	37	48.3	1	2	315	0.00	29.851 
18:05	76.5	76.5	77.9	37	48.3	1	3	270	0.00	29.851 
18:10	76.3	76.3	78.0	41	50.8	1	5	270	0.00	29.851 
18:15	76.3	76.3	78.0	41	50.8	0	2	292	0.00	29.853 
18:20	76.3	76.3	78.0	41	50.8	0	1	315	0.00	29.853 
18:25	76.7	76.7	78.1	39	49.9	0	3	225	0.00	29.853 
18:30	76.7	76.7	77.9	36	47.7	1	3	338	0.00	29.850 
18:35	76.5	76.5	78.0	39	49.7	1	2	338	0.00	29.850 
18:40	76.1	76.1	77.8	39	49.3	1	4	338	0.00	29.850 
18:45	75.6	75.6	77.7	40	49.6	1	3	292	0.00	29.852 
18:50	75.3	75.3	77.6	42	50.6	1	4	338	0.00	29.852 
18:55	74.7	74.7	74.7	44	51.3	0	1	270	0.00	29.852 
19:00	73.9	73.9	73.9	45	51.2	1	3	248	0.00	29.861 
19:05	73.2	73.2	73.2	46	51.2	0	2	338	0.00	29.861 
19:10	72.8	72.8	72.8	48	52.0	0	1	270	0.00	29.861 
19:15	72.7	72.7	72.7	47	51.3	0	1	270	0.00	29.859 
19:20	72.7	72.7	72.7	50	53.0	0	1	270	0.00	29.859 
19:25	72.7	72.7	72.7	48	51.9	0	2	270	0.00	29.859 
19:30	72.7	72.7	72.7	48	51.9	0	2	292	0.00	29.860 
19:35	72.5	72.5	72.5	50	52.8	0	1	292	0.00	29.860 
19:40	72.1	72.1	72.1	50	52.4	0	1	292	0.00	29.860 
19:45	72.1	72.1	72.1	51	53.0	0	1	292	0.00	29.860 
19:50	72.3	72.3	72.3	50	52.6	0	1	292	0.00	29.860 
19:55	72.3	72.3	72.3	50	52.6	0	2	292	0.00	29.860 
20:00	72.0	72.0	72.0	48	51.2	1	5	315	0.00	29.871 
20:05	71.3	71.3	71.3	49	51.1	2	6	112	0.00	29.871 
20:10	70.4	70.4	70.4	51	51.4	2	6	135	0.00	29.871 
20:15	69.9	69.9	69.9	53	52.0	1	4	90	0.00	29.874 
20:20	69.4	69.4	69.4	54	52.0	1	4	112	0.00	29.874 
20:25	68.9	68.9	68.9	56	52.5	1	3	90	0.00	29.874 
20:30	68.6	68.6	68.6	57	52.7	0	1	90	0.00	29.875 
20:35	68.3	68.3	68.3	58	52.9	0	1	90	0.00	29.875 
20:40	67.9	67.9	67.9	58	52.6	0	1	90	0.00	29.875 
20:45	67.6	67.6	67.6	59	52.8	0	1	90	0.00	29.879 
20:50	67.3	67.3	67.3	60	52.9	0	1	90	0.00	29.879 
20:55	67.1	67.1	67.1	58	51.8	0	1	90	0.00	29.879 
21:00	67.1	67.1	67.1	58	51.8	0	1	90	0.00	29.882 
21:05	66.9	66.9	66.9	58	51.6	0	1	90	0.00	29.882 
21:10	66.8	66.8	66.8	58	51.5	0	2	90	0.00	29.882 
21:15	66.6	66.6	66.6	56	50.4	0	2	90	0.00	29.885 
21:20	66.6	66.6	66.6	56	50.4	0	1	135	0.00	29.885 
21:25	66.4	66.4	66.4	56	50.2	0	1	135	0.00	29.885 
21:30	66.1	66.1	66.1	57	50.4	0	1	135	0.00	29.889 
21:35	66.0	66.0	66.0	58	50.8	0	1	135	0.00	29.889 
21:40	65.8	65.8	65.8	59	51.1	0	0	---	0.00	29.889 
21:45	65.5	65.5	65.5	59	50.8	0	1	135	0.00	29.890 
21:50	65.3	65.3	65.3	59	50.6	0	0	---	0.00	29.890 
21:55	65.0	65.0	65.0	60	50.8	0	1	135	0.00	29.890 
22:00	64.5	64.5	64.5	60	50.3	0	0	---	0.00	29.891 
22:05	64.2	64.2	64.2	61	50.5	0	0	---	0.00	29.891 
22:10	63.9	63.9	63.9	62	50.6	0	0	---	0.00	29.891 
22:15	63.4	63.4	63.4	62	50.1	0	0	---	0.00	29.892 
22:20	63.1	63.1	63.1	63	50.3	0	0	---	0.00	29.892 
22:25	62.7	62.7	62.7	65	50.8	0	0	---	0.00	29.892 
22:30	62.4	62.4	62.4	66	50.9	0	0	---	0.00	29.896 
22:35	62.0	62.0	62.0	67	50.9	0	0	---	0.00	29.896 
22:40	61.6	61.6	61.6	68	50.9	0	0	---	0.00	29.896 
22:45	61.2	61.2	61.2	69	50.9	0	0	---	0.00	29.900 
22:50	60.9	60.9	60.9	70	51.0	0	0	---	0.00	29.900 
22:55	60.5	60.5	60.5	70	50.7	0	0	---	0.00	29.900 
23:00	60.2	60.2	60.2	71	50.8	0	0	---	0.00	29.906 
23:05	60.1	60.1	60.1	71	50.7	0	0	---	0.00	29.906 
23:10	59.9	59.9	59.9	71	50.5	0	0	---	0.00	29.906 
23:15	59.8	59.8	59.8	72	50.8	0	0	---	0.00	29.902 
23:20	59.8	59.8	59.8	73	51.1	0	0	---	0.00	29.902 
23:25	59.6	59.6	59.6	73	50.9	0	0	---	0.00	29.902 
23:30	59.6	59.6	59.6	73	50.9	0	0	---	0.00	29.904 
23:35	59.6	59.6	59.6	73	50.9	0	1	135	0.00	29.904 
23:40	59.6	59.6	59.6	73	50.9	0	0	---	0.00	29.904 
23:45	59.8	59.8	59.8	74	51.5	0	0	---	0.00	29.905 
23:50	59.8	59.8	59.8	73	51.1	0	0	---	0.00	29.905 
23:55	59.9	59.9	59.9	73	51.2	0	0	---	0.00	29.905 

CoCoRaHS
IN-AL-39
A2 Web Hosting
Creative Commons License
GoDaddy
Look for:

loaded 2017-10-18 07:30:56 • last modified 2010-11-18 10:43:29
Privacy PolicyDisclaimer
• wx.awcolley.com is powered by PmWiki v.2002016 •
• all content (unless otherwise noted) © 2017 A W Colley